sensor_id;sensor_type;location;lat;lon;timestamp;P1;durP1;ratioP1;P2;durP2;ratioP2
12383;SDS011;6256;63.808;20.336;2023-07-13T00:02:06;2.22;;;2.03;;
12383;SDS011;6256;63.808;20.336;2023-07-13T00:04:32;2.00;;;1.90;;
12383;SDS011;6256;63.808;20.336;2023-07-13T00:06:57;3.25;;;2.17;;
12383;SDS011;6256;63.808;20.336;2023-07-13T00:09:23;2.70;;;2.10;;
12383;SDS011;6256;63.808;20.336;2023-07-13T00:11:50;2.60;;;2.40;;
12383;SDS011;6256;63.808;20.336;2023-07-13T00:14:18;2.55;;;2.05;;
12383;SDS011;6256;63.808;20.336;2023-07-13T00:16:44;4.35;;;2.65;;
12383;SDS011;6256;63.808;20.336;2023-07-13T00:19:11;2.40;;;2.20;;
12383;SDS011;6256;63.808;20.336;2023-07-13T00:21:38;2.75;;;2.17;;
12383;SDS011;6256;63.808;20.336;2023-07-13T00:24:05;2.67;;;2.10;;
12383;SDS011;6256;63.808;20.336;2023-07-13T00:26:32;2.97;;;2.00;;
12383;SDS011;6256;63.808;20.336;2023-07-13T00:28:58;2.30;;;2.10;;
12383;SDS011;6256;63.808;20.336;2023-07-13T00:31:25;2.25;;;2.05;;
12383;SDS011;6256;63.808;20.336;2023-07-13T00:33:51;2.42;;;2.22;;
12383;SDS011;6256;63.808;20.336;2023-07-13T00:36:16;3.08;;;2.28;;
12383;SDS011;6256;63.808;20.336;2023-07-13T00:38:42;2.45;;;2.13;;
12383;SDS011;6256;63.808;20.336;2023-07-13T00:41:09;2.80;;;2.22;;
12383;SDS011;6256;63.808;20.336;2023-07-13T00:43:35;2.17;;;1.98;;
12383;SDS011;6256;63.808;20.336;2023-07-13T00:48:32;3.47;;;2.10;;
12383;SDS011;6256;63.808;20.336;2023-07-13T00:51:00;2.42;;;2.10;;
12383;SDS011;6256;63.808;20.336;2023-07-13T00:53:26;2.20;;;2.00;;
12383;SDS011;6256;63.808;20.336;2023-07-13T00:55:55;2.85;;;2.30;;
12383;SDS011;6256;63.808;20.336;2023-07-13T00:58:21;2.83;;;2.40;;
12383;SDS011;6256;63.808;20.336;2023-07-13T01:00:48;3.15;;;2.60;;
12383;SDS011;6256;63.808;20.336;2023-07-13T01:03:15;2.92;;;2.20;;
12383;SDS011;6256;63.808;20.336;2023-07-13T01:05:41;2.63;;;2.17;;
12383;SDS011;6256;63.808;20.336;2023-07-13T01:08:08;2.45;;;2.25;;
12383;SDS011;6256;63.808;20.336;2023-07-13T01:10:33;2.60;;;2.17;;
12383;SDS011;6256;63.808;20.336;2023-07-13T01:13:04;2.80;;;2.50;;
12383;SDS011;6256;63.808;20.336;2023-07-13T01:15:42;2.38;;;2.17;;
12383;SDS011;6256;63.808;20.336;2023-07-13T01:18:11;2.35;;;2.15;;
12383;SDS011;6256;63.808;20.336;2023-07-13T01:20:46;2.10;;;1.90;;
12383;SDS011;6256;63.808;20.336;2023-07-13T01:23:24;2.70;;;2.50;;
12383;SDS011;6256;63.808;20.336;2023-07-13T01:25:52;2.55;;;2.17;;
12383;SDS011;6256;63.808;20.336;2023-07-13T01:28:18;2.60;;;2.38;;
12383;SDS011;6256;63.808;20.336;2023-07-13T01:30:44;2.47;;;2.28;;
12383;SDS011;6256;63.808;20.336;2023-07-13T01:33:12;2.40;;;2.20;;
12383;SDS011;6256;63.808;20.336;2023-07-13T01:35:39;2.47;;;2.28;;
12383;SDS011;6256;63.808;20.336;2023-07-13T01:38:05;2.30;;;2.10;;
12383;SDS011;6256;63.808;20.336;2023-07-13T01:40:32;2.33;;;2.05;;
12383;SDS011;6256;63.808;20.336;2023-07-13T01:43:00;3.30;;;2.60;;
12383;SDS011;6256;63.808;20.336;2023-07-13T01:45:25;2.72;;;2.40;;
12383;SDS011;6256;63.808;20.336;2023-07-13T01:47:51;2.75;;;2.45;;
12383;SDS011;6256;63.808;20.336;2023-07-13T01:50:17;2.45;;;2.25;;
12383;SDS011;6256;63.808;20.336;2023-07-13T01:52:43;2.85;;;2.53;;
12383;SDS011;6256;63.808;20.336;2023-07-13T01:55:09;2.83;;;2.30;;
12383;SDS011;6256;63.808;20.336;2023-07-13T01:57:35;3.85;;;2.22;;
12383;SDS011;6256;63.808;20.336;2023-07-13T02:00:02;3.25;;;2.58;;
12383;SDS011;6256;63.808;20.336;2023-07-13T02:02:30;3.38;;;2.30;;
12383;SDS011;6256;63.808;20.336;2023-07-13T02:04:56;3.00;;;2.70;;
12383;SDS011;6256;63.808;20.336;2023-07-13T02:07:21;3.72;;;2.40;;
12383;SDS011;6256;63.808;20.336;2023-07-13T02:09:47;2.47;;;2.28;;
12383;SDS011;6256;63.808;20.336;2023-07-13T02:12:13;3.00;;;2.70;;
12383;SDS011;6256;63.808;20.336;2023-07-13T02:14:39;2.50;;;2.30;;
12383;SDS011;6256;63.808;20.336;2023-07-13T02:17:05;2.67;;;2.28;;
12383;SDS011;6256;63.808;20.336;2023-07-13T02:19:31;3.28;;;2.05;;
12383;SDS011;6256;63.808;20.336;2023-07-13T02:21:57;2.55;;;2.22;;
12383;SDS011;6256;63.808;20.336;2023-07-13T02:24:22;2.45;;;2.25;;
12383;SDS011;6256;63.808;20.336;2023-07-13T02:26:48;3.42;;;2.30;;
12383;SDS011;6256;63.808;20.336;2023-07-13T02:29:14;2.47;;;2.28;;
12383;SDS011;6256;63.808;20.336;2023-07-13T02:31:39;2.88;;;2.28;;
12383;SDS011;6256;63.808;20.336;2023-07-13T02:34:05;2.92;;;2.42;;
12383;SDS011;6256;63.808;20.336;2023-07-13T02:36:31;2.65;;;2.35;;
12383;SDS011;6256;63.808;20.336;2023-07-13T02:39:00;2.85;;;2.17;;
12383;SDS011;6256;63.808;20.336;2023-07-13T02:41:27;3.75;;;2.60;;
12383;SDS011;6256;63.808;20.336;2023-07-13T02:43:52;2.60;;;2.40;;
12383;SDS011;6256;63.808;20.336;2023-07-13T02:46:18;2.55;;;2.15;;
12383;SDS011;6256;63.808;20.336;2023-07-13T02:48:44;2.55;;;2.35;;
12383;SDS011;6256;63.808;20.336;2023-07-13T02:51:10;3.03;;;2.65;;
12383;SDS011;6256;63.808;20.336;2023-07-13T02:53:36;3.10;;;1.98;;
12383;SDS011;6256;63.808;20.336;2023-07-13T02:56:03;2.65;;;2.22;;
12383;SDS011;6256;63.808;20.336;2023-07-13T02:58:29;3.53;;;2.40;;
12383;SDS011;6256;63.808;20.336;2023-07-13T03:00:55;3.00;;;2.42;;
12383;SDS011;6256;63.808;20.336;2023-07-13T03:03:22;3.50;;;2.50;;
12383;SDS011;6256;63.808;20.336;2023-07-13T03:05:48;2.65;;;2.17;;
12383;SDS011;6256;63.808;20.336;2023-07-13T03:08:25;3.08;;;2.50;;
12383;SDS011;6256;63.808;20.336;2023-07-13T03:10:58;2.63;;;2.42;;
12383;SDS011;6256;63.808;20.336;2023-07-13T03:13:28;3.35;;;2.30;;
12383;SDS011;6256;63.808;20.336;2023-07-13T03:15:54;2.50;;;2.30;;
12383;SDS011;6256;63.808;20.336;2023-07-13T03:18:20;2.75;;;2.55;;
12383;SDS011;6256;63.808;20.336;2023-07-13T03:20:45;2.50;;;2.30;;
12383;SDS011;6256;63.808;20.336;2023-07-13T03:23:11;2.70;;;2.50;;
12383;SDS011;6256;63.808;20.336;2023-07-13T03:25:37;2.75;;;2.30;;
12383;SDS011;6256;63.808;20.336;2023-07-13T03:28:03;2.80;;;2.58;;
12383;SDS011;6256;63.808;20.336;2023-07-13T03:30:30;2.72;;;2.53;;
12383;SDS011;6256;63.808;20.336;2023-07-13T03:32:56;2.83;;;2.60;;
12383;SDS011;6256;63.808;20.336;2023-07-13T03:35:22;2.95;;;2.35;;
12383;SDS011;6256;63.808;20.336;2023-07-13T03:37:47;3.20;;;2.67;;
12383;SDS011;6256;63.808;20.336;2023-07-13T03:40:13;3.08;;;2.42;;
12383;SDS011;6256;63.808;20.336;2023-07-13T03:42:39;2.63;;;2.40;;
12383;SDS011;6256;63.808;20.336;2023-07-13T03:45:05;2.97;;;2.00;;
12383;SDS011;6256;63.808;20.336;2023-07-13T03:47:31;3.58;;;2.63;;
12383;SDS011;6256;63.808;20.336;2023-07-13T03:49:56;2.55;;;2.20;;
12383;SDS011;6256;63.808;20.336;2023-07-13T03:52:22;2.90;;;2.40;;
12383;SDS011;6256;63.808;20.336;2023-07-13T03:54:48;3.42;;;2.63;;
12383;SDS011;6256;63.808;20.336;2023-07-13T03:57:14;3.72;;;2.25;;
12383;SDS011;6256;63.808;20.336;2023-07-13T03:59:39;2.63;;;2.33;;
12383;SDS011;6256;63.808;20.336;2023-07-13T04:02:05;2.80;;;2.30;;
12383;SDS011;6256;63.808;20.336;2023-07-13T04:04:30;2.80;;;2.40;;
12383;SDS011;6256;63.808;20.336;2023-07-13T04:06:57;2.40;;;2.20;;
12383;SDS011;6256;63.808;20.336;2023-07-13T04:09:23;2.58;;;2.38;;
12383;SDS011;6256;63.808;20.336;2023-07-13T04:11:50;2.45;;;2.25;;
12383;SDS011;6256;63.808;20.336;2023-07-13T04:14:16;2.70;;;2.47;;
12383;SDS011;6256;63.808;20.336;2023-07-13T04:16:42;2.45;;;2.25;;
12383;SDS011;6256;63.808;20.336;2023-07-13T04:19:08;2.50;;;2.15;;
12383;SDS011;6256;63.808;20.336;2023-07-13T04:21:35;2.90;;;2.63;;
12383;SDS011;6256;63.808;20.336;2023-07-13T04:24:02;2.47;;;2.28;;
12383;SDS011;6256;63.808;20.336;2023-07-13T04:26:29;2.28;;;2.08;;
12383;SDS011;6256;63.808;20.336;2023-07-13T04:28:55;2.80;;;2.60;;
12383;SDS011;6256;63.808;20.336;2023-07-13T04:31:21;2.40;;;2.20;;
12383;SDS011;6256;63.808;20.336;2023-07-13T04:33:47;2.40;;;2.20;;
12383;SDS011;6256;63.808;20.336;2023-07-13T04:36:14;2.47;;;2.28;;
12383;SDS011;6256;63.808;20.336;2023-07-13T04:38:41;2.67;;;2.47;;
12383;SDS011;6256;63.808;20.336;2023-07-13T04:41:07;2.83;;;2.42;;
12383;SDS011;6256;63.808;20.336;2023-07-13T04:43:33;3.65;;;2.70;;
12383;SDS011;6256;63.808;20.336;2023-07-13T04:46:13;2.55;;;2.28;;
12383;SDS011;6256;63.808;20.336;2023-07-13T04:48:40;3.65;;;2.70;;
12383;SDS011;6256;63.808;20.336;2023-07-13T04:51:06;2.55;;;2.33;;
12383;SDS011;6256;63.808;20.336;2023-07-13T04:53:32;2.55;;;2.33;;
12383;SDS011;6256;63.808;20.336;2023-07-13T04:55:59;2.63;;;2.38;;
12383;SDS011;6256;63.808;20.336;2023-07-13T04:58:25;2.33;;;2.13;;
12383;SDS011;6256;63.808;20.336;2023-07-13T05:00:51;2.70;;;2.47;;
12383;SDS011;6256;63.808;20.336;2023-07-13T05:03:17;2.83;;;2.60;;
12383;SDS011;6256;63.808;20.336;2023-07-13T05:05:42;3.35;;;2.60;;
12383;SDS011;6256;63.808;20.336;2023-07-13T05:08:08;2.63;;;2.42;;
12383;SDS011;6256;63.808;20.336;2023-07-13T05:10:34;2.67;;;2.47;;
12383;SDS011;6256;63.808;20.336;2023-07-13T05:13:00;3.00;;;2.60;;
12383;SDS011;6256;63.808;20.336;2023-07-13T05:15:26;3.00;;;2.60;;
12383;SDS011;6256;63.808;20.336;2023-07-13T05:17:52;2.60;;;2.40;;
12383;SDS011;6256;63.808;20.336;2023-07-13T05:20:18;4.47;;;2.60;;
12383;SDS011;6256;63.808;20.336;2023-07-13T05:22:44;2.88;;;2.40;;
12383;SDS011;6256;63.808;20.336;2023-07-13T05:25:12;2.67;;;2.47;;
12383;SDS011;6256;63.808;20.336;2023-07-13T05:27:38;2.72;;;2.53;;
12383;SDS011;6256;63.808;20.336;2023-07-13T05:30:04;4.45;;;2.65;;
12383;SDS011;6256;63.808;20.336;2023-07-13T05:32:30;2.55;;;2.35;;
12383;SDS011;6256;63.808;20.336;2023-07-13T05:34:56;2.90;;;2.60;;
12383;SDS011;6256;63.808;20.336;2023-07-13T05:37:22;4.28;;;2.58;;
12383;SDS011;6256;63.808;20.336;2023-07-13T05:39:47;2.90;;;2.22;;
12383;SDS011;6256;63.808;20.336;2023-07-13T05:42:13;3.22;;;2.35;;
12383;SDS011;6256;63.808;20.336;2023-07-13T05:44:39;3.28;;;2.67;;
12383;SDS011;6256;63.808;20.336;2023-07-13T05:47:05;2.50;;;2.30;;
12383;SDS011;6256;63.808;20.336;2023-07-13T05:49:31;3.75;;;3.00;;
12383;SDS011;6256;63.808;20.336;2023-07-13T05:51:57;2.80;;;2.20;;
12383;SDS011;6256;63.808;20.336;2023-07-13T05:54:22;3.30;;;3.00;;
12383;SDS011;6256;63.808;20.336;2023-07-13T05:56:48;3.20;;;2.90;;
12383;SDS011;6256;63.808;20.336;2023-07-13T05:59:14;2.95;;;2.60;;
12383;SDS011;6256;63.808;20.336;2023-07-13T06:01:40;3.08;;;2.80;;
12383;SDS011;6256;63.808;20.336;2023-07-13T06:04:06;4.35;;;2.90;;
12383;SDS011;6256;63.808;20.336;2023-07-13T06:06:32;4.10;;;2.53;;
12383;SDS011;6256;63.808;20.336;2023-07-13T06:08:58;3.10;;;2.80;;
12383;SDS011;6256;63.808;20.336;2023-07-13T06:11:24;2.60;;;2.30;;
12383;SDS011;6256;63.808;20.336;2023-07-13T06:13:52;2.83;;;2.63;;
12383;SDS011;6256;63.808;20.336;2023-07-13T06:16:19;2.90;;;2.53;;
12383;SDS011;6256;63.808;20.336;2023-07-13T06:18:45;3.20;;;2.90;;
12383;SDS011;6256;63.808;20.336;2023-07-13T06:21:20;3.78;;;2.63;;
12383;SDS011;6256;63.808;20.336;2023-07-13T06:23:48;2.88;;;2.58;;
12383;SDS011;6256;63.808;20.336;2023-07-13T06:26:15;2.80;;;2.60;;
12383;SDS011;6256;63.808;20.336;2023-07-13T06:28:41;2.55;;;2.35;;
12383;SDS011;6256;63.808;20.336;2023-07-13T06:31:08;2.72;;;2.40;;
12383;SDS011;6256;63.808;20.336;2023-07-13T06:33:35;2.70;;;2.50;;
12383;SDS011;6256;63.808;20.336;2023-07-13T06:36:02;3.03;;;2.30;;
12383;SDS011;6256;63.808;20.336;2023-07-13T06:38:29;2.70;;;2.50;;
12383;SDS011;6256;63.808;20.336;2023-07-13T06:40:55;3.67;;;2.53;;
12383;SDS011;6256;63.808;20.336;2023-07-13T06:43:20;2.78;;;2.58;;
12383;SDS011;6256;63.808;20.336;2023-07-13T06:45:46;2.40;;;2.20;;
12383;SDS011;6256;63.808;20.336;2023-07-13T06:48:14;2.30;;;2.10;;
12383;SDS011;6256;63.808;20.336;2023-07-13T06:50:41;2.20;;;2.10;;
12383;SDS011;6256;63.808;20.336;2023-07-13T06:53:08;2.60;;;2.40;;
12383;SDS011;6256;63.808;20.336;2023-07-13T06:55:35;2.35;;;2.15;;
12383;SDS011;6256;63.808;20.336;2023-07-13T06:58:00;4.25;;;2.55;;
12383;SDS011;6256;63.808;20.336;2023-07-13T07:00:26;2.60;;;2.30;;
12383;SDS011;6256;63.808;20.336;2023-07-13T07:02:52;2.42;;;2.22;;
12383;SDS011;6256;63.808;20.336;2023-07-13T07:05:18;2.38;;;2.17;;
12383;SDS011;6256;63.808;20.336;2023-07-13T07:07:47;2.55;;;2.35;;
12383;SDS011;6256;63.808;20.336;2023-07-13T07:10:14;3.08;;;2.60;;
12383;SDS011;6256;63.808;20.336;2023-07-13T07:12:40;2.65;;;2.05;;
12383;SDS011;6256;63.808;20.336;2023-07-13T07:15:05;2.47;;;2.28;;
12383;SDS011;6256;63.808;20.336;2023-07-13T07:17:31;2.42;;;2.22;;
12383;SDS011;6256;63.808;20.336;2023-07-13T07:19:57;2.85;;;2.65;;
12383;SDS011;6256;63.808;20.336;2023-07-13T07:22:22;2.60;;;2.40;;
12383;SDS011;6256;63.808;20.336;2023-07-13T07:24:52;2.30;;;2.10;;
12383;SDS011;6256;63.808;20.336;2023-07-13T07:27:18;3.00;;;2.70;;
12383;SDS011;6256;63.808;20.336;2023-07-13T07:29:44;3.90;;;2.80;;
12383;SDS011;6256;63.808;20.336;2023-07-13T07:32:09;4.75;;;2.67;;
12383;SDS011;6256;63.808;20.336;2023-07-13T07:34:35;2.72;;;2.50;;
12383;SDS011;6256;63.808;20.336;2023-07-13T07:37:01;2.53;;;2.13;;
12383;SDS011;6256;63.808;20.336;2023-07-13T07:39:27;2.67;;;2.47;;
12383;SDS011;6256;63.808;20.336;2023-07-13T07:41:52;3.35;;;2.80;;
12383;SDS011;6256;63.808;20.336;2023-07-13T07:44:18;2.58;;;2.38;;
12383;SDS011;6256;63.808;20.336;2023-07-13T07:46:44;2.63;;;2.42;;
12383;SDS011;6256;63.808;20.336;2023-07-13T07:49:10;2.70;;;2.50;;
12383;SDS011;6256;63.808;20.336;2023-07-13T07:51:36;2.90;;;2.60;;
12383;SDS011;6256;63.808;20.336;2023-07-13T07:54:03;2.70;;;2.50;;
12383;SDS011;6256;63.808;20.336;2023-07-13T07:56:29;2.65;;;2.40;;
12383;SDS011;6256;63.808;20.336;2023-07-13T07:58:55;2.42;;;2.22;;
12383;SDS011;6256;63.808;20.336;2023-07-13T08:01:21;4.43;;;2.58;;
12383;SDS011;6256;63.808;20.336;2023-07-13T08:03:47;3.00;;;2.80;;
12383;SDS011;6256;63.808;20.336;2023-07-13T08:06:13;2.95;;;2.55;;
12383;SDS011;6256;63.808;20.336;2023-07-13T08:08:38;2.70;;;2.50;;
12383;SDS011;6256;63.808;20.336;2023-07-13T08:11:04;2.97;;;2.67;;
12383;SDS011;6256;63.808;20.336;2023-07-13T08:13:32;3.15;;;2.90;;
12383;SDS011;6256;63.808;20.336;2023-07-13T08:15:57;2.85;;;2.53;;
12383;SDS011;6256;63.808;20.336;2023-07-13T08:18:24;3.17;;;2.72;;
12383;SDS011;6256;63.808;20.336;2023-07-13T08:20:49;2.95;;;2.65;;
12383;SDS011;6256;63.808;20.336;2023-07-13T08:23:15;3.25;;;2.50;;
12383;SDS011;6256;63.808;20.336;2023-07-13T08:25:41;2.60;;;2.40;;
12383;SDS011;6256;63.808;20.336;2023-07-13T08:28:07;2.30;;;2.10;;
12383;SDS011;6256;63.808;20.336;2023-07-13T08:30:33;2.17;;;2.00;;
12383;SDS011;6256;63.808;20.336;2023-07-13T08:32:59;2.33;;;2.13;;
12383;SDS011;6256;63.808;20.336;2023-07-13T08:35:25;2.80;;;2.30;;
12383;SDS011;6256;63.808;20.336;2023-07-13T08:37:51;2.33;;;2.13;;
12383;SDS011;6256;63.808;20.336;2023-07-13T08:40:17;2.22;;;2.03;;
12383;SDS011;6256;63.808;20.336;2023-07-13T08:42:58;2.53;;;2.33;;
12383;SDS011;6256;63.808;20.336;2023-07-13T08:48:44;2.47;;;2.28;;
12383;SDS011;6256;63.808;20.336;2023-07-13T08:54:05;2.55;;;2.35;;
12383;SDS011;6256;63.808;20.336;2023-07-13T08:56:54;2.15;;;2.00;;
12383;SDS011;6256;63.808;20.336;2023-07-13T08:59:24;3.40;;;2.05;;
12383;SDS011;6256;63.808;20.336;2023-07-13T09:02:39;1.77;;;1.67;;
12383;SDS011;6256;63.808;20.336;2023-07-13T09:04:54;2.13;;;1.90;;
12383;SDS011;6256;63.808;20.336;2023-07-13T09:07:31;2.08;;;1.77;;
12383;SDS011;6256;63.808;20.336;2023-07-13T09:12:36;2.30;;;2.10;;
12383;SDS011;6256;63.808;20.336;2023-07-13T09:15:16;3.60;;;2.00;;
12383;SDS011;6256;63.808;20.336;2023-07-13T09:18:07;2.38;;;2.17;;
12383;SDS011;6256;63.808;20.336;2023-07-13T09:20:42;2.00;;;1.80;;
12383;SDS011;6256;63.808;20.336;2023-07-13T09:23:11;1.65;;;1.55;;
12383;SDS011;6256;63.808;20.336;2023-07-13T09:25:39;2.20;;;1.70;;
12383;SDS011;6256;63.808;20.336;2023-07-13T09:28:17;2.00;;;1.70;;
12383;SDS011;6256;63.808;20.336;2023-07-13T09:31:04;1.75;;;1.60;;
12383;SDS011;6256;63.808;20.336;2023-07-13T09:33:35;2.08;;;1.60;;
12383;SDS011;6256;63.808;20.336;2023-07-13T09:36:00;1.70;;;1.60;;
12383;SDS011;6256;63.808;20.336;2023-07-13T09:38:30;1.67;;;1.58;;
12383;SDS011;6256;63.808;20.336;2023-07-13T09:44:07;1.52;;;1.42;;
12383;SDS011;6256;63.808;20.336;2023-07-13T09:46:38;2.03;;;1.83;;
12383;SDS011;6256;63.808;20.336;2023-07-13T09:49:10;1.73;;;1.58;;
12383;SDS011;6256;63.808;20.336;2023-07-13T09:51:40;2.50;;;1.75;;
12383;SDS011;6256;63.808;20.336;2023-07-13T09:54:16;1.98;;;1.80;;
12383;SDS011;6256;63.808;20.336;2023-07-13T09:56:46;2.63;;;1.80;;
12383;SDS011;6256;63.808;20.336;2023-07-13T09:59:21;1.98;;;1.77;;
12383;SDS011;6256;63.808;20.336;2023-07-13T10:01:49;1.60;;;1.50;;
12383;SDS011;6256;63.808;20.336;2023-07-13T10:04:19;2.42;;;1.95;;
12383;SDS011;6256;63.808;20.336;2023-07-13T10:06:47;2.90;;;1.70;;
12383;SDS011;6256;63.808;20.336;2023-07-13T10:09:14;3.92;;;2.28;;
12383;SDS011;6256;63.808;20.336;2023-07-13T10:11:41;2.10;;;1.90;;
12383;SDS011;6256;63.808;20.336;2023-07-13T10:16:35;3.63;;;1.88;;
12383;SDS011;6256;63.808;20.336;2023-07-13T10:19:02;2.42;;;1.70;;
12383;SDS011;6256;63.808;20.336;2023-07-13T10:21:37;1.85;;;1.60;;
12383;SDS011;6256;63.808;20.336;2023-07-13T10:26:58;1.88;;;1.65;;
12383;SDS011;6256;63.808;20.336;2023-07-13T10:29:29;1.65;;;1.55;;
12383;SDS011;6256;63.808;20.336;2023-07-13T10:32:00;1.65;;;1.55;;
12383;SDS011;6256;63.808;20.336;2023-07-13T10:34:26;1.70;;;1.60;;
12383;SDS011;6256;63.808;20.336;2023-07-13T10:36:53;2.10;;;1.90;;
12383;SDS011;6256;63.808;20.336;2023-07-13T10:39:20;2.10;;;1.88;;
12383;SDS011;6256;63.808;20.336;2023-07-13T10:41:59;2.05;;;1.85;;
12383;SDS011;6256;63.808;20.336;2023-07-13T10:44:29;3.22;;;2.00;;
12383;SDS011;6256;63.808;20.336;2023-07-13T10:47:02;2.10;;;1.90;;
12383;SDS011;6256;63.808;20.336;2023-07-13T10:49:32;2.20;;;2.00;;
12383;SDS011;6256;63.808;20.336;2023-07-13T10:52:00;2.08;;;1.90;;
12383;SDS011;6256;63.808;20.336;2023-07-13T11:02:28;2.60;;;2.30;;
12383;SDS011;6256;63.808;20.336;2023-07-13T11:04:55;3.72;;;1.92;;
12383;SDS011;6256;63.808;20.336;2023-07-13T11:07:28;3.35;;;2.33;;
12383;SDS011;6256;63.808;20.336;2023-07-13T11:10:03;2.10;;;1.95;;
12383;SDS011;6256;63.808;20.336;2023-07-13T11:12:49;2.17;;;1.98;;
12383;SDS011;6256;63.808;20.336;2023-07-13T11:15:27;1.90;;;1.80;;
12383;SDS011;6256;63.808;20.336;2023-07-13T11:18:19;2.13;;;1.95;;
12383;SDS011;6256;63.808;20.336;2023-07-13T11:20:50;2.53;;;1.73;;
12383;SDS011;6256;63.808;20.336;2023-07-13T11:25:51;2.35;;;2.05;;
12383;SDS011;6256;63.808;20.336;2023-07-13T11:28:19;2.60;;;2.10;;
12383;SDS011;6256;63.808;20.336;2023-07-13T11:33:25;2.28;;;2.17;;
12383;SDS011;6256;63.808;20.336;2023-07-13T11:36:06;2.55;;;2.22;;
12383;SDS011;6256;63.808;20.336;2023-07-13T11:38:40;2.60;;;2.40;;
12383;SDS011;6256;63.808;20.336;2023-07-13T11:43:33;3.05;;;2.75;;
12383;SDS011;6256;63.808;20.336;2023-07-13T11:46:11;2.58;;;2.38;;
12383;SDS011;6256;63.808;20.336;2023-07-13T11:48:41;4.38;;;2.58;;
12383;SDS011;6256;63.808;20.336;2023-07-13T11:51:11;3.28;;;2.58;;
12383;SDS011;6256;63.808;20.336;2023-07-13T11:53:45;2.53;;;2.33;;
12383;SDS011;6256;63.808;20.336;2023-07-13T11:56:14;3.08;;;2.55;;
12383;SDS011;6256;63.808;20.336;2023-07-13T11:58:39;2.97;;;2.78;;
12383;SDS011;6256;63.808;20.336;2023-07-13T12:01:06;2.45;;;2.25;;
12383;SDS011;6256;63.808;20.336;2023-07-13T12:03:54;2.67;;;2.47;;
12383;SDS011;6256;63.808;20.336;2023-07-13T12:08:57;2.88;;;2.67;;
12383;SDS011;6256;63.808;20.336;2023-07-13T12:11:28;3.08;;;2.78;;
12383;SDS011;6256;63.808;20.336;2023-07-13T12:13:55;2.97;;;2.67;;
12383;SDS011;6256;63.808;20.336;2023-07-13T12:18:59;2.67;;;2.47;;
12383;SDS011;6256;63.808;20.336;2023-07-13T12:21:30;4.50;;;2.80;;
12383;SDS011;6256;63.808;20.336;2023-07-13T12:24:02;2.90;;;2.60;;
12383;SDS011;6256;63.808;20.336;2023-07-13T12:26:29;3.20;;;2.85;;
12383;SDS011;6256;63.808;20.336;2023-07-13T12:28:56;3.03;;;2.80;;
12383;SDS011;6256;63.808;20.336;2023-07-13T12:31:47;2.88;;;2.67;;
12383;SDS011;6256;63.808;20.336;2023-07-13T12:41:45;3.08;;;2.50;;
12383;SDS011;6256;63.808;20.336;2023-07-13T12:44:14;2.60;;;2.40;;
12383;SDS011;6256;63.808;20.336;2023-07-13T12:49:32;2.80;;;2.60;;
12383;SDS011;6256;63.808;20.336;2023-07-13T12:52:00;5.00;;;2.63;;
12383;SDS011;6256;63.808;20.336;2023-07-13T12:54:31;2.88;;;2.67;;
12383;SDS011;6256;63.808;20.336;2023-07-13T12:56:58;2.90;;;2.70;;
12383;SDS011;6256;63.808;20.336;2023-07-13T12:59:25;2.97;;;2.67;;
12383;SDS011;6256;63.808;20.336;2023-07-13T13:01:55;3.95;;;3.10;;
12383;SDS011;6256;63.808;20.336;2023-07-13T13:04:21;3.35;;;3.05;;
12383;SDS011;6256;63.808;20.336;2023-07-13T13:06:48;3.47;;;3.03;;
12383;SDS011;6256;63.808;20.336;2023-07-13T13:09:14;3.83;;;2.90;;
12383;SDS011;6256;63.808;20.336;2023-07-13T13:11:41;3.13;;;2.92;;
12383;SDS011;6256;63.808;20.336;2023-07-13T13:14:08;3.10;;;2.83;;
12383;SDS011;6256;63.808;20.336;2023-07-13T13:19:23;3.33;;;3.03;;
12383;SDS011;6256;63.808;20.336;2023-07-13T13:21:48;3.30;;;3.00;;
12383;SDS011;6256;63.808;20.336;2023-07-13T13:24:18;3.28;;;2.97;;
12383;SDS011;6256;63.808;20.336;2023-07-13T13:26:46;3.33;;;2.97;;
12383;SDS011;6256;63.808;20.336;2023-07-13T13:29:23;5.22;;;2.95;;
12383;SDS011;6256;63.808;20.336;2023-07-13T13:31:50;3.65;;;3.35;;
12383;SDS011;6256;63.808;20.336;2023-07-13T13:34:16;3.28;;;3.08;;
12383;SDS011;6256;63.808;20.336;2023-07-13T13:36:44;2.80;;;2.60;;
12383;SDS011;6256;63.808;20.336;2023-07-13T13:39:21;3.10;;;2.90;;
12383;SDS011;6256;63.808;20.336;2023-07-13T13:41:59;3.92;;;2.97;;
12383;SDS011;6256;63.808;20.336;2023-07-13T13:44:24;3.38;;;3.03;;
12383;SDS011;6256;63.808;20.336;2023-07-13T13:46:51;3.20;;;3.00;;
12383;SDS011;6256;63.808;20.336;2023-07-13T13:49:23;3.42;;;3.13;;
12383;SDS011;6256;63.808;20.336;2023-07-13T13:51:50;3.33;;;2.70;;
12383;SDS011;6256;63.808;20.336;2023-07-13T13:54:17;3.20;;;3.00;;
12383;SDS011;6256;63.808;20.336;2023-07-13T13:56:45;3.20;;;3.00;;
12383;SDS011;6256;63.808;20.336;2023-07-13T13:59:12;3.50;;;3.20;;
12383;SDS011;6256;63.808;20.336;2023-07-13T14:01:39;3.42;;;3.13;;
12383;SDS011;6256;63.808;20.336;2023-07-13T14:04:08;2.97;;;2.63;;
12383;SDS011;6256;63.808;20.336;2023-07-13T14:06:45;2.97;;;2.78;;
12383;SDS011;6256;63.808;20.336;2023-07-13T14:09:14;3.90;;;2.90;;
12383;SDS011;6256;63.808;20.336;2023-07-13T14:11:43;3.53;;;3.20;;
12383;SDS011;6256;63.808;20.336;2023-07-13T14:14:20;3.33;;;3.05;;
12383;SDS011;6256;63.808;20.336;2023-07-13T14:16:48;3.30;;;3.00;;
12383;SDS011;6256;63.808;20.336;2023-07-13T14:19:18;3.53;;;3.22;;
12383;SDS011;6256;63.808;20.336;2023-07-13T14:21:44;3.67;;;2.85;;
12383;SDS011;6256;63.808;20.336;2023-07-13T14:24:12;2.90;;;2.70;;
12383;SDS011;6256;63.808;20.336;2023-07-13T14:26:39;3.53;;;3.22;;
12383;SDS011;6256;63.808;20.336;2023-07-13T14:29:13;3.40;;;3.15;;
12383;SDS011;6256;63.808;20.336;2023-07-13T14:31:41;3.53;;;3.22;;
12383;SDS011;6256;63.808;20.336;2023-07-13T14:34:08;2.78;;;2.55;;
12383;SDS011;6256;63.808;20.336;2023-07-13T14:36:53;3.78;;;2.85;;
12383;SDS011;6256;63.808;20.336;2023-07-13T14:39:20;3.28;;;2.97;;
12383;SDS011;6256;63.808;20.336;2023-07-13T14:41:52;2.88;;;2.67;;
12383;SDS011;6256;63.808;20.336;2023-07-13T14:44:22;3.45;;;3.10;;
12383;SDS011;6256;63.808;20.336;2023-07-13T14:46:50;3.55;;;3.25;;
12383;SDS011;6256;63.808;20.336;2023-07-13T14:49:28;3.65;;;3.35;;
12383;SDS011;6256;63.808;20.336;2023-07-13T14:51:58;3.55;;;3.25;;
12383;SDS011;6256;63.808;20.336;2023-07-13T14:54:26;3.15;;;2.85;;
12383;SDS011;6256;63.808;20.336;2023-07-13T14:56:52;3.25;;;2.95;;
12383;SDS011;6256;63.808;20.336;2023-07-13T14:59:18;3.83;;;2.80;;
12383;SDS011;6256;63.808;20.336;2023-07-13T15:01:44;3.10;;;2.78;;
12383;SDS011;6256;63.808;20.336;2023-07-13T15:04:12;4.82;;;2.55;;
12383;SDS011;6256;63.808;20.336;2023-07-13T15:06:54;3.45;;;2.47;;
12383;SDS011;6256;63.808;20.336;2023-07-13T15:09:22;2.67;;;2.47;;
12383;SDS011;6256;63.808;20.336;2023-07-13T15:11:50;2.60;;;2.40;;
12383;SDS011;6256;63.808;20.336;2023-07-13T15:14:17;2.72;;;2.53;;
12383;SDS011;6256;63.808;20.336;2023-07-13T15:16:43;3.25;;;2.58;;
12383;SDS011;6256;63.808;20.336;2023-07-13T15:19:11;3.95;;;2.40;;
12383;SDS011;6256;63.808;20.336;2023-07-13T15:21:36;3.05;;;2.33;;
12383;SDS011;6256;63.808;20.336;2023-07-13T15:24:02;2.60;;;2.10;;
12383;SDS011;6256;63.808;20.336;2023-07-13T15:26:28;2.70;;;1.85;;
12383;SDS011;6256;63.808;20.336;2023-07-13T15:28:55;2.30;;;2.10;;
12383;SDS011;6256;63.808;20.336;2023-07-13T15:31:21;2.33;;;2.13;;
12383;SDS011;6256;63.808;20.336;2023-07-13T15:33:53;2.30;;;2.10;;
12383;SDS011;6256;63.808;20.336;2023-07-13T15:36:22;3.72;;;2.25;;
12383;SDS011;6256;63.808;20.336;2023-07-13T15:38:51;1.90;;;1.65;;
12383;SDS011;6256;63.808;20.336;2023-07-13T15:41:21;1.95;;;1.75;;
12383;SDS011;6256;63.808;20.336;2023-07-13T15:43:55;2.17;;;1.90;;
12383;SDS011;6256;63.808;20.336;2023-07-13T15:46:26;2.28;;;2.08;;
12383;SDS011;6256;63.808;20.336;2023-07-13T15:48:53;3.28;;;2.00;;